Latest Weather Observations for Gatton

IDQ60801

Issued at 7:02 pm EST Tuesday 22 August 2017 (issued every 30 minutes, with the page automatically refreshed every 10 minutes)

About weather observations | Map of weather stations | Latest weather observations for QLD | Other Formats
Station Details ID: 040082 Name: UNIVERSITY OF QUEENSLAND GATTON Lat: -27.54 Lon: 152.34 Height: 89.0 m
Data from the previous 72 hours. | See also: Recent months at Gatton
Date/Time
EST
Temp
°C
App
Temp
°C
Dew
Point
°C
Rel
Hum
%
Delta-T
°C
Wind Press
QNH
hPa
Press
MSL
hPa
Rain since
9am
mm
Dir  Spd
km/h
Gust
km/h
Spd
kts
Gust
kts
22/07:00pm 19.3 18.5 11.8 62 4.2 E 7 13 4 7 - - 0.0
22/06:30pm 20.3 18.1 12.0 59 4.6 ENE 15 17 8 9 - - 0.0
22/06:00pm 18.7 16.9 5.5 42 6.5 NE 4 7 2 4 - - 0.0
22/05:30pm 22.7 20.3 4.2 30 9.1 NNW 6 7 3 4 - - 0.0
22/05:00pm 25.7 22.3 4.2 25 10.8 NW 11 15 6 8 - - 0.0
22/04:30pm 26.8 23.1 4.6 24 11.3 WNW 13 20 7 11 - - 0.0
22/04:00pm 27.5 25.1 5.1 24 11.5 S 7 13 4 7 - - 0.0
22/03:30pm 26.1 24.3 8.1 32 9.7 NNE 7 15 4 8 - - 0.0
22/03:00pm 27.1 24.7 9.9 34 9.6 E 13 19 7 10 - - 0.0
22/02:30pm 26.4 24.6 9.3 34 9.4 NNE 9 15 5 8 - - 0.0
22/02:00pm 26.5 24.9 11.4 39 8.6 E 11 15 6 8 - - 0.0
22/01:30pm 25.7 24.5 11.5 41 8.1 SSE 9 13 5 7 - - 0.0
22/01:00pm 25.1 23.6 12.0 44 7.5 ESE 11 17 6 9 - - 0.0
22/12:30pm 24.2 23.3 12.5 48 6.7 NE 9 17 5 9 - - 0.0
22/12:00pm 23.5 22.3 12.8 51 6.2 E 11 17 6 9 - - 0.0
22/11:30am 21.7 21.2 12.0 54 5.5 N 6 9 3 5 - - 0.0
22/11:00am 20.6 20.0 12.3 59 4.7 S 7 11 4 6 - - 0.0
22/10:30am 20.3 20.1 13.0 63 4.2 WNW 6 9 3 5 - - 0.0
22/10:00am 19.5 19.0 12.7 65 3.8 NE 7 11 4 6 - - 0.0
22/09:30am 18.0 17.1 12.5 70 3.1 NNE 9 13 5 7 - - 0.0
22/09:00am 15.7 15.0 11.3 75 2.4 N 6 11 3 6 - - 0.0
22/08:30am 12.9 11.9 10.4 85 1.3 W 6 7 3 4 - - 0.0
22/08:00am 11.8 10.6 9.7 87 1.1 W 6 9 3 5 - - 0.0
22/07:30am 11.0 9.7 10.1 94 0.5 WSW 7 9 4 5 - - 0.0
22/07:00am 8.4 6.6 7.3 93 0.5 WNW 6 7 3 4 - - 0.0
22/06:30am 6.9 5.8 5.2 89 0.8 CALM 0 0 0 0 - - 0.0
22/06:00am 7.4 6.3 5.2 86 1.0 CALM 0 0 0 0 - - 0.0
22/05:30am 8.3 7.5 6.3 87 0.9 CALM 0 0 0 0 - - 0.0
22/05:00am 9.3 8.7 7.3 87 0.9 CALM 0 0 0 0 - - 0.0
22/04:30am 9.5 8.9 7.3 86 1.0 CALM 0 0 0 0 - - 0.0
22/04:00am 10.3 9.9 8.4 88 0.9 CALM 0 0 0 0 - - 0.0
22/03:30am 10.2 9.8 8.1 87 1.0 CALM 0 0 0 0 - - 0.0
22/03:00am 10.2 9.8 8.3 88 0.9 CALM 0 0 0 0 - - 0.0
22/02:30am 10.4 9.9 8.0 85 1.2 CALM 0 0 0 0 - - 0.0
22/02:00am 10.9 10.6 8.5 85 1.2 CALM 0 6 0 3 - - 0.0
22/01:30am 11.8 11.7 9.5 86 1.2 CALM 0 6 0 3 - - 0.0
22/01:00am 12.2 12.2 9.8 85 1.2 CALM 0 0 0 0 - - 0.0
22/12:30am 12.2 12.1 9.4 83 1.4 CALM 0 0 0 0 - - 0.0
22/12:00am 12.3 10.9 9.5 83 1.4 N 7 11 4 6 - - 0.0
 
Date/Time
EST
Temp
°C
App
Temp
°C
Dew
Point
°C
Rel
Hum
%
Delta-T
°C
Wind Press
QNH
hPa
Press
MSL
hPa
Rain since
9am
mm
Dir  Spd
km/h
Gust
km/h
Spd
kts
Gust
kts
21/11:30pm 13.0 11.0 10.0 82 1.5 SSE 11 15 6 8 - - 0.0
21/11:00pm 13.3 11.3 8.8 74 2.3 E 9 15 5 8 - - 0.0
21/10:30pm 14.0 11.9 9.6 75 2.3 S 11 17 6 9 - - 0.0
21/10:00pm 11.3 9.6 8.2 81 1.5 SSE 7 11 4 6 - - 0.0
21/09:30pm 10.5 9.2 6.1 74 2.1 S 2 6 1 3 - - 0.0
21/09:00pm 11.8 10.4 7.3 74 2.2 ESE 4 6 2 3 - - 0.0
21/08:30pm 13.3 11.7 8.6 73 2.4 SE 7 9 4 5 - - 0.0
21/08:00pm 13.4 11.7 8.5 72 2.5 SSE 7 11 4 6 - - 0.0
21/07:30pm 14.8 12.9 9.2 69 2.9 NE 9 13 5 7 - - 0.0
21/07:00pm 15.4 13.1 9.1 66 3.2 NE 11 13 6 7 - - 0.0
21/06:30pm 16.8 14.6 9.5 62 3.8 ENE 11 15 6 8 - - 0.0
21/06:00pm 17.3 15.1 9.2 59 4.2 NE 11 15 6 8 - - 0.0
21/05:30pm 18.1 15.5 7.8 51 5.3 ENE 11 15 6 8 - - 0.0
21/05:00pm 18.6 15.5 7.4 48 5.7 ENE 13 20 7 11 - - 0.0
21/04:30pm 19.4 16.4 7.5 46 6.1 ENE 13 19 7 10 - - 0.0
21/04:00pm 19.8 15.9 6.9 43 6.5 ENE 17 22 9 12 - - 0.0
21/03:30pm 19.8 15.9 5.5 39 7.1 ENE 15 22 8 12 - - 0.0
21/03:00pm 20.8 16.3 4.4 34 8.0 ENE 17 24 9 13 - - 0.0
21/02:30pm 20.9 17.1 4.0 33 8.2 NNE 13 20 7 11 - - 0.0
21/02:00pm 20.8 16.8 4.8 35 7.8 ENE 15 20 8 11 - - 0.0
21/01:30pm 20.3 16.2 4.4 35 7.7 NE 15 22 8 12 - - 0.0
21/01:00pm 20.5 16.8 4.5 35 7.8 NE 13 17 7 9 - - 0.0
21/12:30pm 20.1 16.5 2.9 32 8.1 ENE 11 17 6 9 - - 0.0
21/12:00pm 20.5 17.7 6.8 41 7.0 NNE 11 17 6 9 - - 0.0
21/11:30am 19.9 17.0 6.6 42 6.7 ENE 11 15 6 8 - - 0.0
21/11:00am 18.2 15.3 4.7 41 6.5 NNW 9 11 5 6 - - 0.0
21/10:30am 17.2 14.3 4.5 43 6.0 E 9 15 5 8 - - 0.0
21/10:00am 15.7 13.3 4.4 47 5.3 S 6 9 3 5 - - 0.0
21/09:30am 14.0 11.6 4.3 52 4.5 SW 6 11 3 6 - - 0.0
21/09:00am 12.1 9.0 3.6 56 3.8 W 9 13 5 7 - - 0.0
21/08:30am 10.0 7.3 3.5 64 2.8 WSW 7 11 4 6 - - 0.0
21/08:00am 7.6 4.7 2.7 71 2.1 W 7 11 4 6 - - 0.0
21/07:30am 6.1 2.7 1.8 74 1.7 W 9 13 5 7 - - 0.0
21/07:00am 4.6 1.2 1.8 82 1.1 W 9 13 5 7 - - 0.0
21/06:30am 2.8 -0.8 0.4 84 0.9 W 9 13 5 7 - - 0.0
21/06:00am 2.5 -1.6 -0.3 82 1.0 W 11 13 6 7 - - 0.0
21/05:30am 2.8 -1.3 0.0 82 1.0 W 11 15 6 8 - - 0.0
21/05:00am 2.6 -1.5 -0.3 81 1.1 W 11 15 6 8 - - 0.0
21/04:30am 3.1 -0.7 -0.4 78 1.3 WSW 9 11 5 6 - - 0.0
21/04:00am 3.8 -1.0 0.0 76 1.4 W 15 19 8 10 - - 0.0
21/03:30am 4.2 -0.6 0.4 76 1.5 W 15 19 8 10 - - 0.0
21/03:00am 4.2 -0.6 0.0 74 1.6 W 15 19 8 10 - - 0.0
21/02:30am 4.1 0.1 0.3 76 1.4 W 11 13 6 7 - - 0.0
21/02:00am 4.1 0.0 -0.3 73 1.7 W 11 15 6 8 - - 0.0
21/01:30am 4.5 0.4 -0.5 70 1.9 W 11 13 6 7 - - 0.0
21/01:00am 5.2 1.1 -0.2 68 2.1 WSW 11 13 6 7 - - 0.0
21/12:30am 5.2 1.6 0.4 71 1.9 WSW 9 11 5 6 - - 0.0
21/12:00am 5.0 0.8 -0.8 66 2.2 W 11 13 6 7 - - 0.0
 
Date/Time
EST
Temp
°C
App
Temp
°C
Dew
Point
°C
Rel
Hum
%
Delta-T
°C
Wind Press
QNH
hPa
Press
MSL
hPa
Rain since
9am
mm
Dir  Spd
km/h
Gust
km/h
Spd
kts
Gust
kts
20/11:30pm 4.4 0.4 -2.0 63 2.3 W 9 11 5 6 - - 0.0
20/11:00pm 5.9 2.6 0.0 66 2.3 WSW 7 11 4 6 - - 0.0
20/10:30pm 5.3 2.1 0.9 73 1.7 WSW 7 9 4 5 - - 0.0
20/10:00pm 5.9 2.6 -0.2 65 2.3 WSW 7 7 4 4 - - 0.0
20/09:30pm 6.3 3.0 0.4 66 2.3 WSW 7 9 4 5 - - 0.0
20/09:00pm 6.5 3.4 0.0 63 2.5 SW 6 6 3 3 - - 0.0
20/08:30pm 6.5 4.4 -0.9 59 2.8 CALM 0 0 0 0 - - 0.0
20/08:00pm 8.4 6.5 0.4 57 3.2 CALM 0 4 0 2 - - 0.0
20/07:30pm 8.5 5.6 -1.0 51 3.7 NNW 4 7 2 4 - - 0.0
20/07:00pm 12.3 9.2 1.6 48 4.6 SE 7 9 4 5 - - 0.0
20/06:30pm 11.7 8.6 -0.1 44 4.8 ESE 6 7 3 4 - - 0.0
20/06:00pm 13.7 9.6 -0.3 38 5.8 ESE 11 13 6 7 - - 0.0
20/05:30pm 16.0 12.0 0.2 34 6.8 ESE 11 15 6 8 - - 0.0
20/05:00pm 18.9 14.4 0.0 28 8.3 ESE 13 20 7 11 - - 0.0
20/04:30pm 20.4 17.0 -0.3 25 9.2 SE 7 13 4 7 - - 0.0
20/04:00pm 20.8 17.0 -0.5 24 9.4 E 9 17 5 9 - - 0.0
20/03:30pm 21.5 16.2 -0.5 23 9.8 ENE 17 26 9 14 - - 0.0
20/03:00pm 21.0 16.3 -1.5 22 9.8 SE 13 20 7 11 - - 0.0
20/02:30pm 21.6 17.8 -0.4 23 9.8 NNW 9 15 5 8 - - 0.0
20/02:00pm 20.8 17.0 -0.5 24 9.4 E 9 15 5 8 - - 0.0
20/01:30pm 20.5 17.2 -0.2 25 9.2 S 7 13 4 7 - - 0.0
20/01:00pm 20.6 16.5 -0.1 25 9.2 WNW 11 13 6 7 - - 0.0
20/12:30pm 19.2 14.9 -1.3 25 8.8 WSW 11 19 6 10 - - 0.0
20/12:00pm 18.8 15.0 -1.1 26 8.5 W 9 15 5 8 - - 0.0
20/11:30am 18.0 13.7 -1.8 26 8.3 W 11 20 6 11 - - 0.0
20/11:00am 17.3 12.9 -2.4 26 8.1 W 11 17 6 9 - - 0.0
20/10:30am 16.6 11.9 -2.0 28 7.7 W 13 19 7 10 - - 0.0
20/10:00am 15.9 11.1 -2.6 28 7.5 W 13 17 7 9 - - 0.0
20/09:30am 14.9 9.8 -2.1 31 6.9 W 15 20 8 11 - - 0.0
20/09:00am 13.6 7.7 -2.3 33 6.3 W 19 24 10 13 - - 0.0
20/08:30am 12.1 6.1 -2.9 35 5.8 W 19 24 10 13 - - 0.0
20/08:00am 10.5 4.6 -2.5 40 5.0 W 19 24 10 13 - - 0.0
20/07:30am 8.5 3.3 -2.4 46 4.1 WSW 15 20 8 11 - - 0.0
20/07:00am 6.6 1.4 -3.1 50 3.5 WSW 15 20 8 11 - - 0.0
20/06:30am 5.5 0.2 -3.6 52 3.2 W 15 20 8 11 - - 0.0
20/06:00am 6.0 0.3 -3.6 50 3.4 W 17 20 9 11 - - 0.0
20/05:30am 6.9 1.2 -3.9 46 3.8 W 17 22 9 12 - - 0.0
20/05:00am 7.0 1.3 -3.8 46 3.8 W 17 22 9 12 - - 0.0
20/04:30am 7.0 1.7 -3.8 46 3.8 W 15 20 8 11 - - 0.0
20/04:00am 7.5 1.4 -3.9 44 4.1 W 19 26 10 14 - - 0.0
20/03:30am 7.8 2.1 -4.0 43 4.2 W 17 20 9 11 - - 0.0
20/03:00am 8.2 2.5 -3.9 42 4.4 W 17 24 9 13 - - 0.0
20/02:30am 7.7 2.4 -3.5 45 4.0 WNW 15 24 8 13 - - 0.0
20/02:00am 7.5 2.2 -3.9 44 4.1 W 15 19 8 10 - - 0.0
20/01:30am 8.1 3.1 -4.0 42 4.3 WSW 13 24 7 13 - - 0.0
20/01:00am 8.9 2.8 -4.3 39 4.7 WSW 19 26 10 14 - - 0.0
20/12:30am 8.1 3.1 -4.3 41 4.4 WSW 13 15 7 8 - - 0.0
20/12:00am 7.8 3.1 -4.6 41 4.4 WSW 11 15 6 8 - - 0.0
 
Date/Time
EST
Temp
°C
App
Temp
°C
Dew
Point
°C
Rel
Hum
%
Delta-T
°C
Wind Press
QNH
hPa
Press
MSL
hPa
Rain since
9am
mm
Dir  Spd
km/h
Gust
km/h
Spd
kts
Gust
kts
19/11:30pm 8.9 4.3 -4.3 39 4.7 W 11 15 6 8 - - 0.0
19/11:00pm 9.9 4.9 -4.4 36 5.2 W 13 19 7 10 - - 0.0
19/10:30pm 10.1 5.4 -5.0 34 5.4 W 11 19 6 10 - - 0.0
19/10:00pm 11.3 5.5 -4.8 32 5.9 W 17 30 9 16 - - 0.0
19/09:30pm 12.3 6.1 -4.8 30 6.3 W 19 26 10 14 - - 0.0
19/09:00pm 11.5 7.6 -4.6 32 5.9 WSW 7 13 4 7 - - 0.0
19/08:30pm 11.1 6.9 -4.1 34 5.6 SSE 9 13 5 7 - - 0.0
19/08:00pm 10.7 4.9 -4.9 33 5.7 WSW 17 24 9 13 - - 0.0
19/07:30pm 12.0 6.2 -5.0 30 6.2 WSW 17 24 9 13 - - 0.0

Other Formats:

Comma delimited format used in spreadsheet applications
http://www.bom.gov.au/fwo/IDQ60801/IDQ60801.94562.axf

JavaScript Object Notation format (JSON) in row-major order
http://www.bom.gov.au/fwo/IDQ60801/IDQ60801.94562.json